Time;durP1;ratioP1;P1;durP2;ratioP2;P2;SDS_P1;SDS_P2;PMS_P1;PMS_P2;Temp;Humidity;BMP_temperature;BMP_pressure;BME280_temperature;BME280_humidity;BME280_pressure;Samples;Min_cycle;Max_cycle;Signal;HPM_P1;HPM_P2
2023/04/04 00:01:24;;;;;;;5.75;1.58;;;2.20;61.40;;;;;;5010582;28;19963;-85
2023/04/04 00:03:50;;;;;;;3.83;1.80;;;2.20;61.20;;;;;;5009557;28;20048;-86
2023/04/04 00:06:18;;;;;;;4.88;1.58;;;2.10;61.60;;;;;;5011740;28;20060;-86
2023/04/04 00:08:43;;;;;;;4.07;1.25;;;2.10;61.20;;;;;;5011582;28;20406;-85
2023/04/04 00:11:09;;;;;;;;;;;2.20;61.00;;;;;;5012396;28;20029;-85
2023/04/04 00:13:35;;;;;;;3.63;1.38;;;2.30;60.30;;;;;;5015111;28;19909;-87
2023/04/04 00:16:01;;;;;;;5.07;1.38;;;2.50;59.30;;;;;;5015261;28;20025;-88
2023/04/04 00:18:26;;;;;;;;;;;2.60;59.30;;;;;;5015408;28;20037;-88
2023/04/04 00:20:52;;;;;;;3.92;0.90;;;2.70;58.50;;;;;;5015315;28;20043;-87
2023/04/04 00:23:18;;;;;;;;;;;2.70;58.50;;;;;;5015237;28;20076;-86
2023/04/04 00:25:51;;;;;;;3.90;1.20;;;2.70;58.00;;;;;;5014743;28;19905;-86
2023/04/04 00:28:18;;;;;;;5.30;1.48;;;2.70;58.70;;;;;;5014292;28;20494;-85
2023/04/04 00:30:44;;;;;;;3.67;1.20;;;2.70;57.90;;;;;;5015073;28;20549;-85
2023/04/04 00:33:10;;;;;;;4.30;1.38;;;2.60;57.90;;;;;;5012566;28;20033;-85
2023/04/04 00:35:35;;;;;;;;;;;2.50;58.80;;;;;;5013717;28;20842;-84
2023/04/04 00:38:01;;;;;;;2.63;0.93;;;2.40;59.50;;;;;;5014599;28;19905;-85
2023/04/04 00:40:27;;;;;;;;;;;2.20;60.10;;;;;;5014614;28;20022;-84
2023/04/04 00:42:53;;;;;;;4.45;1.40;;;2.20;59.60;;;;;;5014139;28;19956;-84
2023/04/04 00:45:18;;;;;;;;;;;2.40;59.30;;;;;;5014293;28;20034;-83
2023/04/04 00:47:45;;;;;;;3.03;1.02;;;2.40;59.10;;;;;;5014143;28;20443;-84
2023/04/04 00:50:11;;;;;;;2.50;1.15;;;2.50;58.00;;;;;;5015197;28;20061;-84
2023/04/04 00:52:36;;;;;;;;;;;2.60;58.00;;;;;;5014363;28;20026;-84
2023/04/04 00:55:03;;;;;;;1.92;0.68;;;2.70;57.50;;;;;;5015048;28;20041;-84
2023/04/04 00:57:31;;;;;;;4.60;1.20;;;2.60;57.70;;;;;;5013669;28;20022;-84
2023/04/04 00:59:58;;;;;;;4.72;1.50;;;2.40;58.30;;;;;;5017077;28;20040;-83
2023/04/04 01:02:25;;;;;;;5.28;1.33;;;2.50;58.60;;;;;;5013714;28;20022;-84
2023/04/04 01:04:51;;;;;;;4.25;1.30;;;2.40;58.50;;;;;;5014573;28;20058;-84
2023/04/04 01:07:17;;;;;;;;;;;2.40;59.40;;;;;;5014058;28;20068;-84
2023/04/04 01:09:43;;;;;;;4.53;1.40;;;2.30;59.30;;;;;;5014039;28;19905;-86
2023/04/04 01:12:10;;;;;;;4.75;1.50;;;2.40;59.00;;;;;;5014194;28;20030;-86
2023/04/04 01:14:35;;;;;;;3.22;1.40;;;2.50;58.30;;;;;;5013866;28;20038;-85
2023/04/04 01:17:02;;;;;;;;;;;2.50;58.50;;;;;;5014281;28;20041;-86
2023/04/04 01:19:45;;;;;;;4.57;1.30;;;2.50;58.20;;;;;;5013563;28;20305;-85
2023/04/04 01:22:12;;;;;;;3.60;1.13;;;2.40;58.90;;;;;;5013678;28;20034;-86
2023/04/04 01:24:41;;;;;;;2.42;1.20;;;2.30;58.90;;;;;;5013681;28;20030;-87
2023/04/04 01:27:06;;;;;;;4.13;1.15;;;2.30;59.30;;;;;;5013882;28;20022;-86
2023/04/04 01:29:32;;;;;;;;;;;2.30;60.10;;;;;;5013576;28;20072;-87
2023/04/04 01:32:24;;;;;;;4.65;1.40;;;2.20;60.20;;;;;;5013405;28;20412;-85
2023/04/04 01:35:24;;;;;;;3.78;1.50;;;2.10;61.00;;;;;;5013795;28;20081;-85
2023/04/04 01:38:10;;;;;;;3.58;1.13;;;1.90;62.70;;;;;;5013101;28;20017;-86
2023/04/04 01:40:40;;;;;;;8.23;0.95;;;1.90;63.20;;;;;;5011353;28;20041;-85
2023/04/04 01:43:07;;;;;;;4.53;1.55;;;1.80;64.20;;;;;;5012964;28;20077;-85
2023/04/04 01:45:34;;;;;;;5.32;1.60;;;1.70;64.00;;;;;;5011265;28;20066;-86
2023/04/04 01:48:00;;;;;;;5.00;1.17;;;1.70;64.60;;;;;;5012785;28;20025;-86
2023/04/04 01:50:25;;;;;;;;;;;1.60;65.60;;;;;;5013863;28;20386;-85
2023/04/04 01:52:51;;;;;;;5.35;1.10;;;1.70;65.40;;;;;;5012718;28;19905;-85
2023/04/04 01:55:17;;;;;;;;;;;1.70;65.30;;;;;;5013468;28;20481;-88
2023/04/04 01:57:43;;;;;;;4.13;1.40;;;1.70;65.20;;;;;;5013195;28;19905;-89
2023/04/04 02:00:09;;;;;;;;;;;1.70;65.40;;;;;;5013722;28;20048;-86
2023/04/04 02:02:36;;;;;;;6.97;1.80;;;1.80;65.20;;;;;;5013211;28;20366;-89
2023/04/04 02:05:03;;;;;;;6.18;1.63;;;1.80;65.20;;;;;;5013380;28;20105;-88
2023/04/04 02:07:28;;;;;;;3.90;1.52;;;1.70;65.60;;;;;;5012981;28;20108;-88
2023/04/04 02:09:54;;;;;;;;;;;1.90;65.40;;;;;;5013855;28;20122;-89
2023/04/04 02:12:21;;;;;;;4.38;1.00;;;1.90;65.40;;;;;;5014701;28;19912;-88
2023/04/04 02:14:46;;;;;;;6.35;1.55;;;2.00;64.90;;;;;;5012886;28;20569;-88
2023/04/04 02:17:12;;;;;;;;;;;2.00;64.20;;;;;;5014058;28;20061;-87
2023/04/04 02:19:38;;;;;;;7.07;1.63;;;2.00;64.20;;;;;;5013658;28;19906;-89
2023/04/04 02:22:03;;;;;;;;;;;2.00;64.40;;;;;;5014081;28;20121;-88
2023/04/04 02:24:29;;;;;;;3.33;1.13;;;2.10;63.80;;;;;;5011364;28;19915;-87
2023/04/04 02:26:55;;;;;;;;;;;2.00;63.70;;;;;;5012338;28;20612;-88
2023/04/04 02:29:21;;;;;;;3.45;1.10;;;2.00;63.90;;;;;;5012911;28;19912;-88
2023/04/04 02:31:47;;;;;;;3.97;1.00;;;2.00;63.90;;;;;;5013692;28;20053;-87
2023/04/04 02:34:12;;;;;;;;;;;2.10;63.70;;;;;;5013045;28;20192;-85
2023/04/04 02:36:38;;;;;;;4.10;1.42;;;2.00;64.10;;;;;;5012542;28;20297;-85
2023/04/04 02:39:04;;;;;;;3.38;1.42;;;2.10;63.40;;;;;;5012442;28;20038;-87
2023/04/04 02:41:30;;;;;;;2.63;0.88;;;2.10;63.50;;;;;;5012390;28;20030;-87
2023/04/04 02:43:56;;;;;;;;;;;2.10;63.60;;;;;;5012707;28;20022;-86
2023/04/04 02:46:21;;;;;;;4.00;1.23;;;2.10;63.30;;;;;;5012439;28;19909;-86
2023/04/04 02:48:47;;;;;;;;;;;2.00;63.30;;;;;;5013357;28;20022;-86
2023/04/04 02:51:13;;;;;;;4.65;1.23;;;2.00;63.20;;;;;;5013104;28;19905;-87
2023/04/04 02:53:38;;;;;;;5.68;1.55;;;2.10;62.90;;;;;;5012977;28;20026;-86
2023/04/04 02:56:04;;;;;;;;;;;2.10;63.40;;;;;;5012829;28;20030;-86
2023/04/04 02:58:33;;;;;;;4.38;1.23;;;2.10;63.40;;;;;;5012220;28;19906;-86
2023/04/04 03:00:59;;;;;;;6.50;2.25;;;2.10;63.40;;;;;;5012266;28;20030;-88
2023/04/04 03:03:25;;;;;;;;;;;2.10;63.30;;;;;;5012524;28;20113;-87
2023/04/04 03:05:51;;;;;;;10.67;3.03;;;2.10;63.50;;;;;;5012419;28;19909;-88
2023/04/04 03:08:17;;;;;;;;;;;2.10;63.10;;;;;;5014077;28;20340;-88
2023/04/04 03:10:44;;;;;;;4.30;1.45;;;2.10;63.50;;;;;;5012304;28;19905;-87
2023/04/04 03:13:09;;;;;;;6.18;2.17;;;2.20;63.30;;;;;;5013478;28;20033;-88
2023/04/04 03:15:35;;;;;;;;;;;2.20;62.90;;;;;;5012459;28;20042;-86
2023/04/04 03:18:02;;;;;;;2.95;1.10;;;2.10;63.30;;;;;;5012200;28;20450;-88
2023/04/04 03:20:28;;;;;;;5.45;1.20;;;2.10;62.90;;;;;;5012497;28;20025;-88
2023/04/04 03:22:53;;;;;;;;;;;2.20;63.00;;;;;;5012893;28;20033;-87
2023/04/04 03:25:19;;;;;;;4.55;1.60;;;2.30;63.00;;;;;;5011992;28;19913;-87
2023/04/04 03:27:45;;;;;;;;;;;2.10;63.40;;;;;;5012788;28;20052;-85
2023/04/04 03:30:11;;;;;;;5.40;2.08;;;2.10;63.30;;;;;;5015521;28;19916;-88
2023/04/04 03:32:38;;;;;;;5.90;1.92;;;2.10;63.50;;;;;;5013291;28;20022;-87
2023/04/04 03:35:05;;;;;;;4.95;1.38;;;2.10;63.50;;;;;;5011793;28;20065;-86
2023/04/04 03:37:31;;;;;;;4.60;1.60;;;2.10;63.60;;;;;;5011772;28;20080;-86
2023/04/04 03:39:58;;;;;;;3.97;1.50;;;2.20;63.50;;;;;;5012558;28;20025;-86
2023/04/04 03:42:25;;;;;;;6.68;2.20;;;2.10;63.90;;;;;;5014292;28;20379;-86
2023/04/04 03:44:52;;;;;;;6.75;1.50;;;2.10;63.80;;;;;;5012302;28;20022;-87
2023/04/04 03:47:18;;;;;;;3.72;1.02;;;1.90;64.50;;;;;;5013699;28;20037;-86
2023/04/04 03:49:44;;;;;;;6.28;1.95;;;2.00;64.90;;;;;;5014811;28;20041;-88
2023/04/04 03:52:10;;;;;;;;;;;1.90;65.00;;;;;;5013790;28;20022;-86
2023/04/04 03:54:36;;;;;;;5.72;1.60;;;1.70;66.00;;;;;;5015212;28;19935;-86
2023/04/04 03:57:02;;;;;;;;;;;1.60;66.40;;;;;;5016216;28;20498;-85
2023/04/04 03:59:28;;;;;;;3.33;1.00;;;1.50;67.00;;;;;;5015179;28;19912;-85
2023/04/04 04:01:53;;;;;;;;;;;1.50;67.00;;;;;;5015735;28;20026;-86
2023/04/04 04:04:19;;;;;;;3.42;1.20;;;1.50;67.40;;;;;;5015690;28;19921;-86
2023/04/04 04:06:45;;;;;;;;;;;1.60;67.50;;;;;;5015952;28;20026;-85
2023/04/04 04:09:13;;;;;;;3.03;1.27;;;1.60;66.90;;;;;;5015325;28;19909;-86
2023/04/04 04:11:39;;;;;;;5.30;1.33;;;1.60;66.90;;;;;;5014331;28;20032;-87
2023/04/04 04:14:04;;;;;;;;;;;1.50;67.50;;;;;;5014380;28;20042;-87
2023/04/04 04:16:31;;;;;;;5.38;1.13;;;1.50;68.10;;;;;;5013042;28;19920;-87
2023/04/04 04:18:57;;;;;;;6.13;1.38;;;1.50;68.30;;;;;;5015187;28;20075;-87
2023/04/04 04:21:24;;;;;;;;;;;1.40;68.80;;;;;;5015503;28;20437;-86
2023/04/04 04:23:50;;;;;;;3.20;1.17;;;1.30;69.20;;;;;;5015118;28;19912;-87
2023/04/04 04:26:15;;;;;;;;;;;1.20;69.90;;;;;;5015550;28;20406;-84
2023/04/04 04:28:41;;;;;;;7.18;3.00;;;1.30;70.40;;;;;;5014538;28;19906;-85
2023/04/04 04:31:07;;;;;;;;;;;1.30;70.00;;;;;;5014488;28;20026;-82
2023/04/04 04:33:33;;;;;;;6.55;1.42;;;1.30;71.80;;;;;;5012396;28;19909;-84
2023/04/04 04:36:00;;;;;;;;;;;1.30;72.00;;;;;;5013836;28;20060;-84
2023/04/04 04:38:27;;;;;;;9.00;1.52;;;1.30;71.90;;;;;;5013314;28;19928;-83
2023/04/04 04:40:53;;;;;;;5.20;1.38;;;1.50;70.60;;;;;;5013473;28;20030;-84
2023/04/04 04:43:19;;;;;;;;;;;1.60;69.80;;;;;;5014062;28;20052;-84
2023/04/04 04:45:44;;;;;;;4.00;1.63;;;1.60;70.30;;;;;;5013209;28;19912;-83
2023/04/04 04:48:10;;;;;;;;;;;1.60;70.30;;;;;;5013837;28;20057;-83
2023/04/04 04:50:35;;;;;;;5.80;1.20;;;1.60;70.00;;;;;;5015035;28;19906;-86
2023/04/04 04:53:01;;;;;;;;;;;1.70;69.20;;;;;;5014709;28;20084;-86
2023/04/04 04:55:27;;;;;;;5.55;1.25;;;1.80;69.10;;;;;;5013799;28;19914;-85
2023/04/04 04:57:52;;;;;;;;;;;1.90;68.90;;;;;;5014796;28;20026;-85
2023/04/04 05:00:18;;;;;;;2.13;0.70;;;2.10;67.50;;;;;;5014102;28;19912;-86
2023/04/04 05:02:44;;;;;;;3.47;1.27;;;2.20;67.10;;;;;;5014611;28;20030;-86
2023/04/04 05:05:10;;;;;;;;;;;2.30;67.40;;;;;;5014402;28;20041;-86
2023/04/04 05:07:36;;;;;;;4.80;1.30;;;2.50;67.50;;;;;;5012918;28;19913;-86
2023/04/04 05:10:01;;;;;;;3.10;1.40;;;2.70;65.90;;;;;;5014512;28;20066;-86
2023/04/04 05:12:27;;;;;;;;;;;2.70;65.10;;;;;;5014435;28;20060;-86
2023/04/04 05:14:53;;;;;;;4.03;1.15;;;2.80;63.80;;;;;;5013382;28;19913;-88
2023/04/04 05:17:18;;;;;;;;;;;2.90;64.00;;;;;;5014299;28;20049;-87
2023/04/04 05:19:45;;;;;;;9.13;1.30;;;2.90;63.90;;;;;;5015475;28;19905;-87
2023/04/04 05:22:10;;;;;;;3.55;1.25;;;3.00;63.70;;;;;;5012526;28;20061;-86
2023/04/04 05:24:36;;;;;;;;;;;3.10;63.60;;;;;;5013054;28;20107;-85
2023/04/04 05:27:01;;;;;;;5.63;1.50;;;3.20;63.00;;;;;;5013779;28;19909;-86
2023/04/04 05:29:28;;;;;;;;;;;3.30;61.90;;;;;;5013413;28;20030;-88
2023/04/04 05:31:54;;;;;;;5.55;1.60;;;3.30;61.40;;;;;;5012832;28;19905;-86
2023/04/04 05:34:19;;;;;;;3.70;1.70;;;3.40;61.40;;;;;;5013548;28;20124;-87
2023/04/04 05:36:45;;;;;;;;;;;3.50;61.40;;;;;;5013985;28;20128;-87
2023/04/04 05:39:11;;;;;;;4.50;1.70;;;3.60;61.20;;;;;;5012715;28;19910;-87
2023/04/04 05:41:36;;;;;;;;;;;3.70;60.50;;;;;;5013159;28;20041;-87
2023/04/04 05:44:02;;;;;;;18.25;8.32;;;3.60;60.80;;;;;;5013010;28;20273;-87
2023/04/04 05:46:28;;;;;;;8.45;3.60;;;3.70;60.60;;;;;;5012829;28;20124;-86
2023/04/04 05:48:54;;;;;;;;;;;3.80;60.40;;;;;;5013063;28;20034;-87
2023/04/04 05:51:19;;;;;;;6.05;1.80;;;3.90;60.20;;;;;;5012737;28;20324;-86
2023/04/04 05:53:46;;;;;;;;;;;4.00;59.70;;;;;;5013161;28;20663;-86
2023/04/04 05:56:12;;;;;;;4.70;1.60;;;4.10;58.70;;;;;;5012620;28;19913;-86
2023/04/04 05:58:38;;;;;;;;;;;4.30;59.10;;;;;;5013164;28;20062;-86
2023/04/04 06:01:10;;;;;;;4.50;1.80;;;4.40;56.30;;;;;;5011275;28;19913;-87
2023/04/04 06:03:36;;;;;;;4.20;1.30;;;4.50;57.10;;;;;;5010282;28;20080;-86
2023/04/04 06:06:05;;;;;;;;;;;4.90;55.70;;;;;;5011794;28;20070;-87
2023/04/04 06:08:30;;;;;;;10.73;3.92;;;5.00;54.90;;;;;;5012034;28;19910;-87
2023/04/04 06:10:56;;;;;;;;;;;5.50;53.40;;;;;;5011173;28;20026;-87
2023/04/04 06:13:22;;;;;;;10.93;4.90;;;5.50;52.20;;;;;;5012260;28;19906;-85
2023/04/04 06:15:47;;;;;;;;;;;6.50;51.00;;;;;;5012914;28;20038;-86
2023/04/04 06:18:13;;;;;;;3.85;1.55;;;6.40;51.10;;;;;;5012285;28;19906;-87
2023/04/04 06:20:38;;;;;;;;;;;7.20;49.40;;;;;;5012565;28;20033;-88
2023/04/04 06:23:04;;;;;;;4.93;1.40;;;7.40;48.50;;;;;;5013757;28;20370;-88
2023/04/04 06:25:30;;;;;;;5.82;1.50;;;8.00;46.90;;;;;;5013615;28;20072;-86
2023/04/04 06:27:56;;;;;;;;;;;8.50;47.10;;;;;;5012574;28;20034;-86
2023/04/04 06:30:22;;;;;;;5.63;1.30;;;9.40;45.50;;;;;;5012467;28;20008;-86
2023/04/04 06:32:48;;;;;;;;;;;10.30;44.90;;;;;;5012409;28;20510;-86
2023/04/04 06:35:14;;;;;;;3.10;1.33;;;11.40;42.40;;;;;;5012122;28;19956;-87
2023/04/04 06:37:39;;;;;;;;;;;12.00;41.10;;;;;;5011172;28;20049;-85
2023/04/04 06:40:05;;;;;;;3.20;1.30;;;12.70;39.20;;;;;;5011075;28;19920;-86
2023/04/04 06:42:32;;;;;;;6.70;1.42;;;13.10;38.00;;;;;;5010667;28;20112;-84
2023/04/04 06:44:57;;;;;;;3.92;1.55;;;13.60;36.70;;;;;;5013499;28;20117;-86
2023/04/04 06:47:23;;;;;;;3.40;1.80;;;13.40;35.90;;;;;;5011142;28;20117;-86
2023/04/04 06:49:49;;;;;;;4.20;1.50;;;12.90;35.00;;;;;;5011392;28;20097;-87
2023/04/04 06:52:14;;;;;;;2.78;1.20;;;12.30;34.50;;;;;;5013221;28;20566;-86
2023/04/04 06:54:40;;;;;;;3.78;1.63;;;11.70;35.40;;;;;;5011777;28;20064;-86
2023/04/04 06:57:06;;;;;;;4.70;2.72;;;11.30;37.20;;;;;;5011747;28;20033;-86
2023/04/04 06:59:31;;;;;;;;;;;11.30;37.50;;;;;;5013863;28;20027;-86
2023/04/04 07:01:57;;;;;;;2.90;1.67;;;10.50;36.80;;;;;;5012577;28;19960;-84
2023/04/04 07:04:23;;;;;;;;;;;9.60;38.30;;;;;;5010054;28;20058;-83
2023/04/04 07:06:48;;;;;;;7.32;4.10;;;9.40;39.40;;;;;;5010338;28;20121;-83
2023/04/04 07:09:14;;;;;;;;;;;9.10;40.60;;;;;;5011923;28;20017;-85
2023/04/04 07:11:39;;;;;;;4.05;1.98;;;8.50;41.40;;;;;;5011952;28;19905;-85
2023/04/04 07:14:05;;;;;;;;;;;8.00;42.50;;;;;;5010431;28;20393;-84
2023/04/04 07:16:31;;;;;;;4.95;1.75;;;7.90;41.40;;;;;;5011242;28;19906;-85
2023/04/04 07:18:56;;;;;;;;;;;7.60;42.70;;;;;;5010541;28;20537;-85
2023/04/04 07:21:23;;;;;;;4.68;1.63;;;8.00;42.60;;;;;;5012673;28;19909;-85
2023/04/04 07:23:49;;;;;;;4.82;2.00;;;8.30;42.60;;;;;;5015911;28;20025;-85
2023/04/04 07:26:15;;;;;;;3.92;1.55;;;8.70;42.10;;;;;;5013863;28;20026;-84
2023/04/04 07:28:41;;;;;;;;;;;8.90;40.70;;;;;;5016379;28;20084;-85
2023/04/04 07:31:07;;;;;;;3.35;1.75;;;8.90;41.40;;;;;;5015504;28;19932;-85
2023/04/04 07:33:32;;;;;;;;;;;8.60;41.80;;;;;;5014250;28;20040;-84
2023/04/04 07:36:00;;;;;;;4.05;1.40;;;8.50;41.80;;;;;;5012545;28;19920;-85
2023/04/04 07:38:26;;;;;;;3.05;1.50;;;8.30;41.60;;;;;;5015143;28;20037;-86
2023/04/04 07:40:52;;;;;;;;;;;8.40;41.40;;;;;;5013625;28;20084;-84
2023/04/04 07:43:17;;;;;;;4.78;1.63;;;8.80;41.80;;;;;;5012192;28;20348;-86
2023/04/04 07:45:43;;;;;;;;;;;9.30;42.20;;;;;;5014754;28;20129;-85
2023/04/04 07:48:08;;;;;;;7.25;2.40;;;9.90;40.40;;;;;;5014170;28;19905;-85
2023/04/04 07:50:34;;;;;;;;;;;10.90;38.90;;;;;;5014788;28;20030;-86
2023/04/04 07:53:00;;;;;;;7.20;1.50;;;11.00;35.70;;;;;;5014059;28;19910;-84
2023/04/04 07:55:26;;;;;;;;;;;10.80;36.50;;;;;;5014017;28;20048;-85
2023/04/04 07:57:52;;;;;;;5.28;1.40;;;10.20;37.00;;;;;;5013516;28;20290;-86
2023/04/04 08:00:20;;;;;;;4.25;1.67;;;9.90;38.70;;;;;;5013513;28;20482;-86
2023/04/04 08:02:53;;;;;;;3.30;1.63;;;10.60;38.10;;;;;;5012200;28;20029;-85
2023/04/04 08:05:19;;;;;;;3.30;1.38;;;11.10;37.40;;;;;;5015481;28;20045;-85
2023/04/04 08:07:44;;;;;;;;;;;10.70;37.40;;;;;;5014570;28;20083;-86
2023/04/04 08:10:10;;;;;;;3.78;1.42;;;10.10;36.60;;;;;;5014112;28;19921;-86
2023/04/04 08:12:37;;;;;;;;;;;10.50;37.10;;;;;;5012840;28;20029;-86
2023/04/04 08:15:02;;;;;;;3.90;1.70;;;10.70;36.50;;;;;;5013907;28;20012;-87
2023/04/04 08:17:28;;;;;;;;;;;10.40;36.10;;;;;;5015036;28;20915;-83
2023/04/04 08:19:54;;;;;;;5.00;1.50;;;10.70;36.40;;;;;;5013861;28;19949;-84
2023/04/04 08:22:19;;;;;;;;;;;11.00;36.90;;;;;;5013703;28;20022;-84
2023/04/04 08:24:45;;;;;;;3.70;1.27;;;10.90;35.20;;;;;;5014815;28;19910;-85
2023/04/04 08:27:11;;;;;;;;;;;10.90;36.30;;;;;;5015012;28;20367;-83
2023/04/04 08:29:36;;;;;;;8.25;2.45;;;11.10;36.20;;;;;;5014375;28;19959;-84
2023/04/04 08:32:02;;;;;;;;;;;10.80;37.60;;;;;;5013575;28;20030;-84
2023/04/04 08:34:28;;;;;;;4.13;1.52;;;11.50;37.30;;;;;;5013608;28;19956;-83
2023/04/04 08:36:53;;;;;;;;;;;12.10;34.60;;;;;;5012177;28;20026;-84
2023/04/04 08:39:19;;;;;;;4.75;2.13;;;12.10;35.30;;;;;;5013770;28;19953;-84
2023/04/04 08:41:45;;;;;;;;;;;12.00;34.00;;;;;;5012048;28;20117;-83
2023/04/04 08:44:21;;;;;;;5.07;1.85;;;11.70;36.00;;;;;;5012262;28;19913;-83
2023/04/04 08:46:48;;;;;;;7.50;2.67;;;11.40;35.20;;;;;;5014356;28;20030;-85
2023/04/04 08:49:17;;;;;;;4.10;1.25;;;10.50;36.60;;;;;;5015813;28;20022;-84
2023/04/04 08:51:44;;;;;;;5.72;2.00;;;10.50;37.30;;;;;;5014867;28;20475;-84
2023/04/04 08:54:12;;;;;;;4.13;1.40;;;10.70;35.40;;;;;;5014161;28;20030;-85
2023/04/04 08:56:37;;;;;;;4.25;1.75;;;10.80;36.40;;;;;;5012539;28;20036;-83
2023/04/04 08:59:03;;;;;;;;;;;11.10;34.60;;;;;;5014142;28;20022;-84
2023/04/04 09:01:29;;;;;;;4.15;1.75;;;10.50;36.90;;;;;;5013630;28;19967;-84
2023/04/04 09:04:00;;;;;;;3.08;1.50;;;10.30;37.30;;;;;;5014086;28;20041;-85
2023/04/04 09:06:27;;;;;;;2.63;1.10;;;10.50;38.80;;;;;;5014045;28;20053;-85
2023/04/04 09:08:53;;;;;;;3.72;1.80;;;11.20;37.70;;;;;;5013681;28;20509;-84
2023/04/04 09:11:22;;;;;;;4.05;1.50;;;11.40;36.60;;;;;;5013874;28;20033;-84
2023/04/04 09:13:50;;;;;;;3.55;1.58;;;11.10;35.50;;;;;;5012373;28;20117;-83
2023/04/04 09:16:16;;;;;;;10.43;1.77;;;10.90;35.40;;;;;;5012810;28;20026;-84
2023/04/04 09:18:42;;;;;;;3.00;1.30;;;11.10;36.90;;;;;;5013452;28;20029;-85
2023/04/04 09:21:10;;;;;;;3.83;1.17;;;11.70;34.70;;;;;;5013934;28;20026;-83
2023/04/04 09:23:36;;;;;;;4.55;1.67;;;11.50;35.20;;;;;;5011970;28;20517;-83
2023/04/04 09:26:02;;;;;;;;;;;11.30;35.00;;;;;;5011546;28;20030;-84
2023/04/04 09:28:28;;;;;;;2.75;1.20;;;10.60;35.10;;;;;;5013118;28;19909;-85
2023/04/04 09:30:53;;;;;;;;;;;10.10;35.90;;;;;;5013192;28;20028;-84
2023/04/04 09:33:20;;;;;;;6.60;1.90;;;9.90;36.70;;;;;;5012890;28;20384;-85
2023/04/04 09:35:56;;;;;;;4.00;1.30;;;9.80;38.00;;;;;;5011644;28;20057;-84
2023/04/04 09:38:27;;;;;;;3.37;1.43;;;10.00;38.00;;;;;;5011628;28;20030;-83
2023/04/04 09:40:54;;;;;;;2.75;1.27;;;10.60;36.40;;;;;;5012972;28;20076;-84
2023/04/04 09:43:22;;;;;;;6.63;2.80;;;10.30;36.70;;;;;;5011850;28;20021;-83
2023/04/04 09:45:48;;;;;;;2.70;1.30;;;9.90;37.00;;;;;;5011551;28;20038;-84
2023/04/04 09:48:26;;;;;;;4.93;1.65;;;9.70;36.90;;;;;;5009969;28;20049;-83
2023/04/04 09:50:51;;;;;;;5.72;1.55;;;9.90;36.40;;;;;;5011399;28;20040;-84
2023/04/04 09:53:17;;;;;;;;;;;9.80;37.80;;;;;;5012731;28;20113;-83
2023/04/04 09:55:52;;;;;;;7.88;2.58;;;10.00;37.90;;;;;;5013220;28;20366;-84
2023/04/04 09:58:30;;;;;;;3.33;1.33;;;9.90;37.00;;;;;;5013507;28;20041;-83
2023/04/04 10:00:59;;;;;;;11.13;6.05;;;9.80;36.90;;;;;;5012256;28;20041;-82
2023/04/04 10:03:26;;;;;;;3.85;1.77;;;9.70;38.20;;;;;;5009715;28;20037;-85
2023/04/04 10:06:00;;;;;;;4.05;1.98;;;9.70;37.30;;;;;;5010113;28;20073;-82
2023/04/04 10:08:27;;;;;;;7.13;1.73;;;10.40;36.30;;;;;;5010835;28;20536;-83
2023/04/04 10:10:58;;;;;;;3.40;1.50;;;10.60;37.00;;;;;;5011735;28;20026;-84
2023/04/04 10:13:26;;;;;;;6.45;1.83;;;11.00;37.00;;;;;;5012442;28;20076;-84
2023/04/04 10:15:59;;;;;;;3.10;1.60;;;11.50;35.20;;;;;;5010912;28;20091;-84
2023/04/04 10:18:26;;;;;;;4.75;1.40;;;11.60;34.40;;;;;;5009972;28;20018;-83
2023/04/04 10:20:56;;;;;;;6.10;2.50;;;11.10;34.50;;;;;;5012419;28;20116;-84
2023/04/04 10:23:25;;;;;;;5.18;1.92;;;10.70;36.10;;;;;;5009539;28;20532;-84
2023/04/04 10:25:51;;;;;;;3.55;1.65;;;10.60;35.40;;;;;;5010083;28;20087;-84
2023/04/04 10:28:19;;;;;;;5.38;2.03;;;10.30;35.80;;;;;;5012877;28;20022;-85
2023/04/04 10:30:56;;;;;;;5.32;2.90;;;10.20;35.30;;;;;;5011860;28;20120;-85
2023/04/04 10:34:00;;;;;;;3.13;1.50;;;10.00;37.70;;;;;;5010138;28;20026;-83
2023/04/04 10:36:37;;;;;;;5.45;2.10;;;9.80;36.60;;;;;;5009443;28;20046;-83
2023/04/04 10:39:26;;;;;;;5.20;1.20;;;9.30;38.10;;;;;;5009659;28;20038;-85
2023/04/04 10:41:53;;;;;;;3.10;1.20;;;9.10;37.70;;;;;;5010421;28;20401;-84
2023/04/04 10:44:32;;;;;;;4.30;1.40;;;9.10;37.50;;;;;;5011017;28;20041;-84
2023/04/04 10:47:07;;;;;;;4.55;1.92;;;9.30;37.60;;;;;;5010400;28;20018;-84
2023/04/04 10:49:35;;;;;;;5.15;2.10;;;9.30;37.90;;;;;;5011617;28;20093;-85
2023/04/04 10:52:01;;;;;;;8.60;1.70;;;9.30;38.40;;;;;;5010277;28;20026;-83
2023/04/04 10:54:28;;;;;;;5.80;1.20;;;9.30;37.20;;;;;;5011259;28;20033;-84
2023/04/04 10:56:59;;;;;;;5.45;1.77;;;9.30;37.10;;;;;;5009677;28;20120;-83
2023/04/04 10:59:25;;;;;;;4.22;1.35;;;8.90;38.80;;;;;;5010461;28;20030;-83
2023/04/04 11:01:57;;;;;;;3.70;1.58;;;9.10;37.80;;;;;;5010796;28;20057;-83
2023/04/04 11:04:37;;;;;;;4.47;1.70;;;9.10;37.60;;;;;;5009246;28;20453;-83
2023/04/04 11:07:17;;;;;;;4.35;1.65;;;9.10;38.10;;;;;;5009965;28;20393;-84
2023/04/04 11:09:59;;;;;;;6.28;2.05;;;9.10;38.80;;;;;;5010136;28;20030;-85
2023/04/04 11:12:30;;;;;;;4.85;1.75;;;9.10;37.70;;;;;;5010771;28;20053;-84
2023/04/04 11:15:04;;;;;;;2.67;1.20;;;9.00;39.10;;;;;;5009158;28;20049;-84
2023/04/04 11:17:52;;;;;;;2.90;1.50;;;9.10;38.40;;;;;;5011050;28;20022;-84
2023/04/04 11:20:33;;;;;;;4.15;1.52;;;8.80;38.80;;;;;;5010458;28;20520;-81
2023/04/04 11:23:48;;;;;;;4.15;1.70;;;8.70;37.90;;;;;;5010509;28;20026;-83
2023/04/04 11:26:29;;;;;;;4.68;2.33;;;8.70;38.20;;;;;;5008862;28;20696;-84
2023/04/04 11:29:02;;;;;;;7.22;3.47;;;8.50;39.10;;;;;;5009453;28;20022;-83
2023/04/04 11:31:44;;;;;;;4.18;1.75;;;8.50;39.80;;;;;;5009410;28;20040;-84
2023/04/04 11:34:12;;;;;;;4.57;1.48;;;8.70;39.40;;;;;;5009146;28;20026;-83
2023/04/04 11:36:39;;;;;;;4.97;1.80;;;8.90;37.60;;;;;;5011767;28;20069;-84
2023/04/04 11:39:28;;;;;;;3.80;1.27;;;8.90;39.60;;;;;;5009251;28;20022;-83
2023/04/04 11:41:53;;;;;;;4.35;1.48;;;9.10;38.90;;;;;;5009634;28;20648;-84
2023/04/04 11:44:21;;;;;;;;;;;9.10;40.40;;;;;;5010701;28;20113;-83
2023/04/04 11:46:48;;;;;;;7.45;3.55;;;9.30;38.00;;;;;;5010556;28;19906;-85
2023/04/04 11:49:14;;;;;;;4.95;2.00;;;9.20;39.70;;;;;;5008837;28;20034;-83
2023/04/04 11:51:41;;;;;;;5.78;2.22;;;9.30;38.00;;;;;;5011705;28;20040;-85
2023/04/04 11:54:16;;;;;;;4.95;1.50;;;9.10;38.10;;;;;;5010617;28;20022;-84
2023/04/04 11:56:44;;;;;;;4.80;2.20;;;9.10;38.10;;;;;;5010562;28;20034;-84
2023/04/04 11:59:17;;;;;;;6.20;2.30;;;9.20;37.60;;;;;;5013040;28;20034;-83
2023/04/04 12:01:43;;;;;;;5.38;1.92;;;9.10;38.90;;;;;;5013195;28;20502;-86
2023/04/04 12:04:10;;;;;;;3.25;1.40;;;9.20;39.00;;;;;;5010526;28;20030;-85
2023/04/04 12:06:37;;;;;;;4.03;1.65;;;9.30;38.60;;;;;;5010670;28;20050;-84
2023/04/04 12:09:04;;;;;;;4.55;1.65;;;9.30;38.50;;;;;;5012045;28;20033;-83
2023/04/04 12:11:33;;;;;;;9.10;1.50;;;9.30;38.90;;;;;;5013635;28;20034;-84
2023/04/04 12:13:59;;;;;;;4.30;1.42;;;9.30;37.80;;;;;;5013315;28;20491;-83
2023/04/04 12:16:28;;;;;;;6.55;2.30;;;9.10;38.30;;;;;;5012901;28;20111;-84
2023/04/04 12:19:00;;;;;;;6.35;1.20;;;9.10;38.50;;;;;;5014582;28;20018;-84
2023/04/04 12:21:26;;;;;;;5.60;1.67;;;9.20;38.50;;;;;;5013541;28;20033;-83
2023/04/04 12:23:52;;;;;;;;;;;9.40;37.30;;;;;;5014504;28;20032;-84
2023/04/04 12:26:18;;;;;;;8.70;2.35;;;9.30;37.90;;;;;;5013688;28;20000;-85
2023/04/04 12:28:44;;;;;;;;;;;9.40;39.60;;;;;;5013980;28;20621;-83
2023/04/04 12:31:12;;;;;;;3.33;1.30;;;9.60;38.50;;;;;;5012777;28;19916;-83
2023/04/04 12:33:40;;;;;;;3.20;1.58;;;9.70;37.60;;;;;;5013476;28;20105;-84
2023/04/04 12:36:07;;;;;;;2.80;1.25;;;9.40;37.10;;;;;;5011949;28;20129;-83
2023/04/04 12:38:32;;;;;;;;;;;9.40;37.60;;;;;;5013740;28;20104;-83
2023/04/04 12:40:58;;;;;;;5.70;2.67;;;9.30;37.70;;;;;;5015140;28;19963;-84
2023/04/04 12:43:28;;;;;;;4.28;1.60;;;9.40;37.80;;;;;;5013349;28;20026;-84
2023/04/04 12:45:56;;;;;;;4.35;1.80;;;9.40;37.30;;;;;;5014646;28;20053;-84
2023/04/04 12:48:28;;;;;;;6.78;2.10;;;9.30;38.70;;;;;;5013644;28;20494;-84
2023/04/04 12:50:59;;;;;;;6.47;1.40;;;9.40;38.50;;;;;;5014334;28;20073;-84
2023/04/04 12:53:29;;;;;;;5.22;1.63;;;9.70;37.10;;;;;;5015297;28;20057;-82
2023/04/04 12:55:59;;;;;;;3.90;1.65;;;9.60;37.00;;;;;;5013948;28;20036;-84
2023/04/04 12:58:25;;;;;;;4.20;1.60;;;9.40;37.20;;;;;;5013590;28;20557;-85
2023/04/04 13:00:52;;;;;;;;;;;9.60;37.20;;;;;;5013155;28;20639;-84
2023/04/04 13:03:23;;;;;;;6.45;2.03;;;9.50;36.60;;;;;;5014330;28;19906;-85
2023/04/04 13:05:51;;;;;;;9.50;1.45;;;9.30;38.50;;;;;;5013307;28;20445;-85
2023/04/04 13:08:17;;;;;;;9.65;3.47;;;9.40;38.30;;;;;;5012796;28;20037;-86
2023/04/04 13:10:57;;;;;;;6.95;2.78;;;9.40;37.40;;;;;;5013534;28;20034;-84
2023/04/04 13:13:35;;;;;;;9.35;2.80;;;9.30;38.00;;;;;;5012739;28;20589;-86
2023/04/04 13:16:06;;;;;;;4.90;1.50;;;9.50;37.10;;;;;;5012757;28;20041;-85
2023/04/04 13:18:36;;;;;;;6.72;1.40;;;9.50;36.70;;;;;;5011388;28;20410;-83
2023/04/04 13:21:03;;;;;;;4.28;1.52;;;9.40;36.90;;;;;;5012553;28;20052;-84